sensor_id;sensor_type;location;lat;lon;timestamp;pressure;altitude;pressure_sealevel;temperature;humidity
65716;BME280;63484;52.054;8.518;2023-03-03T00:03:15;101450.78;;;2.01;96.26
65716;BME280;63484;52.054;8.518;2023-03-03T00:08:18;101455.94;;;2.06;95.35
65716;BME280;63484;52.054;8.518;2023-03-03T00:13:22;101443.03;;;2.00;96.30
65716;BME280;63484;52.054;8.518;2023-03-03T00:18:28;101449.06;;;2.02;95.87
65716;BME280;63484;52.054;8.518;2023-03-03T00:23:34;101453.38;;;2.01;96.29
65716;BME280;63484;52.054;8.518;2023-03-03T00:28:44;101451.38;;;2.21;95.02
65716;BME280;63484;52.054;8.518;2023-03-03T00:33:47;101464.50;;;2.11;94.88
65716;BME280;63484;52.054;8.518;2023-03-03T00:38:58;101454.09;;;2.15;95.18
65716;BME280;63484;52.054;8.518;2023-03-03T00:44:32;101444.56;;;2.14;95.53
65716;BME280;63484;52.054;8.518;2023-03-03T00:49:36;101447.13;;;2.19;95.12
65716;BME280;63484;52.054;8.518;2023-03-03T00:54:39;101446.31;;;2.14;94.83
65716;BME280;63484;52.054;8.518;2023-03-03T00:59:42;101456.56;;;2.23;94.62
65716;BME280;63484;52.054;8.518;2023-03-03T01:04:48;101447.16;;;2.14;95.02
65716;BME280;63484;52.054;8.518;2023-03-03T01:09:50;101450.78;;;2.04;94.93
65716;BME280;63484;52.054;8.518;2023-03-03T01:14:53;101448.09;;;2.10;94.74
65716;BME280;63484;52.054;8.518;2023-03-03T01:19:55;101462.78;;;2.10;94.49
65716;BME280;63484;52.054;8.518;2023-03-03T01:24:56;101455.94;;;2.03;94.68
65716;BME280;63484;52.054;8.518;2023-03-03T01:29:59;101455.97;;;2.01;94.32
65716;BME280;63484;52.054;8.518;2023-03-03T01:35:01;101445.72;;;1.94;94.65
65716;BME280;63484;52.054;8.518;2023-03-03T01:40:03;101437.16;;;1.87;94.92
65716;BME280;63484;52.054;8.518;2023-03-03T01:45:15;101444.03;;;1.93;94.75
65716;BME280;63484;52.054;8.518;2023-03-03T01:50:26;101469.00;;;1.98;94.34
65716;BME280;63484;52.054;8.518;2023-03-03T01:55:32;101435.50;;;1.85;94.96
65716;BME280;63484;52.054;8.518;2023-03-03T02:00:38;101443.25;;;1.86;94.53
65716;BME280;63484;52.054;8.518;2023-03-03T02:05:41;101457.78;;;1.95;94.54
65716;BME280;63484;52.054;8.518;2023-03-03T02:10:44;101450.88;;;1.95;94.82
65716;BME280;63484;52.054;8.518;2023-03-03T02:15:48;101450.16;;;1.86;94.92
65716;BME280;63484;52.054;8.518;2023-03-03T02:20:53;101445.84;;;1.85;95.20
65716;BME280;63484;52.054;8.518;2023-03-03T02:26:05;101445.00;;;1.83;95.70
65716;BME280;63484;52.054;8.518;2023-03-03T02:31:11;101440.69;;;1.83;95.82
65716;BME280;63484;52.054;8.518;2023-03-03T02:36:17;101445.03;;;1.81;96.41
65716;BME280;63484;52.054;8.518;2023-03-03T02:41:28;101451.88;;;1.85;96.24
65716;BME280;63484;52.054;8.518;2023-03-03T02:46:34;101452.09;;;1.67;96.40
65716;BME280;63484;52.054;8.518;2023-03-03T02:51:36;101457.28;;;1.66;96.62
65716;BME280;63484;52.054;8.518;2023-03-03T02:56:39;101465.09;;;1.63;96.25
65716;BME280;63484;52.054;8.518;2023-03-03T03:01:41;101455.72;;;1.56;95.77
65716;BME280;63484;52.054;8.518;2023-03-03T03:06:47;101448.75;;;1.58;95.52
65716;BME280;63484;52.054;8.518;2023-03-03T03:11:51;101452.31;;;1.51;95.63
65716;BME280;63484;52.054;8.518;2023-03-03T03:16:56;101443.72;;;1.47;96.52
65716;BME280;63484;52.054;8.518;2023-03-03T03:21:58;101441.94;;;1.52;95.89
65716;BME280;63484;52.054;8.518;2023-03-03T03:27:02;101441.16;;;1.44;96.17
65716;BME280;63484;52.054;8.518;2023-03-03T03:32:04;101440.97;;;1.59;95.66
65716;BME280;63484;52.054;8.518;2023-03-03T03:37:05;101453.16;;;1.51;95.50
65716;BME280;63484;52.054;8.518;2023-03-03T03:42:10;101462.69;;;1.46;96.50
65716;BME280;63484;52.054;8.518;2023-03-03T03:47:12;101454.03;;;1.50;96.93
65716;BME280;63484;52.054;8.518;2023-03-03T03:52:13;101455.69;;;1.54;96.25
65716;BME280;63484;52.054;8.518;2023-03-03T03:57:16;101457.50;;;1.51;96.74
65716;BME280;63484;52.054;8.518;2023-03-03T04:02:19;101445.38;;;1.51;96.81
65716;BME280;63484;52.054;8.518;2023-03-03T04:07:20;101456.69;;;1.44;97.28
65716;BME280;63484;52.054;8.518;2023-03-03T04:12:23;101457.66;;;1.34;97.61
65716;BME280;63484;52.054;8.518;2023-03-03T04:17:25;101451.66;;;1.30;98.22
65716;BME280;63484;52.054;8.518;2023-03-03T04:22:27;101440.38;;;1.36;98.02
65716;BME280;63484;52.054;8.518;2023-03-03T04:27:31;101442.13;;;1.34;98.45
65716;BME280;63484;52.054;8.518;2023-03-03T04:32:33;101449.00;;;1.35;98.71
65716;BME280;63484;52.054;8.518;2023-03-03T04:37:37;101443.00;;;1.34;99.25
65716;BME280;63484;52.054;8.518;2023-03-03T04:42:40;101437.03;;;1.25;100.00
65716;BME280;63484;52.054;8.518;2023-03-03T04:47:43;101456.03;;;1.25;100.00
65716;BME280;63484;52.054;8.518;2023-03-03T04:52:45;101454.38;;;1.17;100.00
65716;BME280;63484;52.054;8.518;2023-03-03T04:57:48;101456.06;;;1.21;100.00
65716;BME280;63484;52.054;8.518;2023-03-03T05:02:49;101469.75;;;1.32;100.00
65716;BME280;63484;52.054;8.518;2023-03-03T05:07:52;101488.00;;;1.23;100.00
65716;BME280;63484;52.054;8.518;2023-03-03T05:12:54;101488.00;;;1.21;100.00
65716;BME280;63484;52.054;8.518;2023-03-03T05:17:56;101487.13;;;1.24;100.00
65716;BME280;63484;52.054;8.518;2023-03-03T05:22:57;101490.59;;;1.18;100.00
65716;BME280;63484;52.054;8.518;2023-03-03T05:28:02;101493.28;;;1.11;100.00
65716;BME280;63484;52.054;8.518;2023-03-03T05:33:04;101494.16;;;1.10;100.00
65716;BME280;63484;52.054;8.518;2023-03-03T05:38:06;101495.78;;;1.20;100.00
65716;BME280;63484;52.054;8.518;2023-03-03T05:43:09;101490.75;;;1.03;100.00
65716;BME280;63484;52.054;8.518;2023-03-03T05:48:10;101479.53;;;1.04;100.00
65716;BME280;63484;52.054;8.518;2023-03-03T05:53:12;101487.38;;;0.95;100.00
65716;BME280;63484;52.054;8.518;2023-03-03T05:58:14;101487.34;;;1.00;100.00
65716;BME280;63484;52.054;8.518;2023-03-03T06:03:16;101483.09;;;0.91;100.00
65716;BME280;63484;52.054;8.518;2023-03-03T06:08:17;101498.56;;;0.97;100.00
65716;BME280;63484;52.054;8.518;2023-03-03T06:13:20;101495.91;;;1.06;99.20
65716;BME280;63484;52.054;8.518;2023-03-03T06:18:21;101492.41;;;1.09;98.68
65716;BME280;63484;52.054;8.518;2023-03-03T06:23:23;101492.41;;;1.09;98.22
65716;BME280;63484;52.054;8.518;2023-03-03T06:28:26;101503.69;;;1.06;98.20
65716;BME280;63484;52.054;8.518;2023-03-03T06:33:27;101508.03;;;1.00;98.56
65716;BME280;63484;52.054;8.518;2023-03-03T06:38:29;101520.13;;;0.98;98.60
65716;BME280;63484;52.054;8.518;2023-03-03T06:43:32;101527.81;;;1.10;97.39
65716;BME280;63484;52.054;8.518;2023-03-03T06:48:33;101530.38;;;1.13;98.03
65716;BME280;63484;52.054;8.518;2023-03-03T06:53:35;101524.34;;;1.11;98.63
65716;BME280;63484;52.054;8.518;2023-03-03T06:58:38;101540.78;;;1.08;98.10
65716;BME280;63484;52.054;8.518;2023-03-03T07:03:39;101541.63;;;1.06;97.99
65716;BME280;63484;52.054;8.518;2023-03-03T07:08:41;101549.31;;;1.18;98.35
65716;BME280;63484;52.054;8.518;2023-03-03T07:13:46;101548.44;;;1.19;97.78
65716;BME280;63484;52.054;8.518;2023-03-03T07:18:49;101562.19;;;1.24;96.92
65716;BME280;63484;52.054;8.518;2023-03-03T07:23:52;101565.66;;;1.26;97.17
65716;BME280;63484;52.054;8.518;2023-03-03T07:28:57;101568.97;;;1.38;96.35
65716;BME280;63484;52.054;8.518;2023-03-03T07:34:04;101575.88;;;1.42;96.21
65716;BME280;63484;52.054;8.518;2023-03-03T07:39:33;101578.38;;;1.49;95.58
65716;BME280;63484;52.054;8.518;2023-03-03T07:44:36;101585.31;;;1.45;95.56
65716;BME280;63484;52.054;8.518;2023-03-03T07:49:38;101587.88;;;1.48;94.82
65716;BME280;63484;52.054;8.518;2023-03-03T07:54:42;101591.22;;;1.61;95.35
65716;BME280;63484;52.054;8.518;2023-03-03T07:59:48;101590.19;;;1.78;92.97
65716;BME280;63484;52.054;8.518;2023-03-03T08:04:50;101591.88;;;1.82;92.58
65716;BME280;63484;52.054;8.518;2023-03-03T08:09:55;101596.94;;;1.94;92.20
65716;BME280;63484;52.054;8.518;2023-03-03T08:15:13;101596.06;;;1.94;91.40
65716;BME280;63484;52.054;8.518;2023-03-03T08:20:49;101596.94;;;1.94;89.25
65716;BME280;63484;52.054;8.518;2023-03-03T08:25:51;101599.44;;;2.02;88.59
65716;BME280;63484;52.054;8.518;2023-03-03T08:30:54;101600.47;;;1.87;89.71
65716;BME280;63484;52.054;8.518;2023-03-03T08:35:55;101602.91;;;2.02;89.97
65716;BME280;63484;52.054;8.518;2023-03-03T08:40:57;101593.97;;;2.26;87.85
65716;BME280;63484;52.054;8.518;2023-03-03T08:46:02;101604.19;;;2.39;86.97
65716;BME280;63484;52.054;8.518;2023-03-03T08:51:04;101601.69;;;2.30;87.49
65716;BME280;63484;52.054;8.518;2023-03-03T08:56:06;101600.91;;;2.27;87.92
65716;BME280;63484;52.054;8.518;2023-03-03T09:01:09;101607.84;;;2.23;87.96
65716;BME280;63484;52.054;8.518;2023-03-03T09:06:10;101607.69;;;2.35;88.02
65716;BME280;63484;52.054;8.518;2023-03-03T09:11:12;101613.56;;;2.51;86.28
65716;BME280;63484;52.054;8.518;2023-03-03T09:16:15;101612.50;;;2.65;85.34
65716;BME280;63484;52.054;8.518;2023-03-03T09:21:20;101619.91;;;2.93;84.93
65716;BME280;63484;52.054;8.518;2023-03-03T09:26:25;101616.16;;;3.12;83.13
65716;BME280;63484;52.054;8.518;2023-03-03T09:31:37;101627.31;;;3.18;82.23
65716;BME280;63484;52.054;8.518;2023-03-03T09:36:39;101625.38;;;3.31;81.32
65716;BME280;63484;52.054;8.518;2023-03-03T09:42:03;101632.09;;;3.44;80.69
65716;BME280;63484;52.054;8.518;2023-03-03T09:47:30;101636.00;;;3.70;79.05
65716;BME280;63484;52.054;8.518;2023-03-03T09:52:39;101630.03;;;3.65;79.79
65716;BME280;63484;52.054;8.518;2023-03-03T09:57:57;101633.91;;;3.42;81.23
65716;BME280;63484;52.054;8.518;2023-03-03T10:03:23;101634.28;;;3.16;82.45
65716;BME280;63484;52.054;8.518;2023-03-03T10:08:38;101637.75;;;3.15;82.33
65716;BME280;63484;52.054;8.518;2023-03-03T10:14:08;101646.25;;;3.26;80.85
65716;BME280;63484;52.054;8.518;2023-03-03T10:19:30;101647.41;;;3.62;79.25
65716;BME280;63484;52.054;8.518;2023-03-03T10:24:40;101651.19;;;3.93;77.99
65716;BME280;63484;52.054;8.518;2023-03-03T10:29:51;101643.50;;;3.87;77.96
65716;BME280;63484;52.054;8.518;2023-03-03T10:35:17;101642.78;;;4.26;77.92
65716;BME280;63484;52.054;8.518;2023-03-03T10:40:27;101638.28;;;4.75;74.64
65716;BME280;63484;52.054;8.518;2023-03-03T10:51:27;101648.91;;;4.66;74.42
65716;BME280;63484;52.054;8.518;2023-03-03T10:56:41;101646.41;;;4.62;75.01
65716;BME280;63484;52.054;8.518;2023-03-03T11:01:49;101646.25;;;5.09;72.93
65716;BME280;63484;52.054;8.518;2023-03-03T11:07:02;101651.69;;;4.98;74.51
65716;BME280;63484;52.054;8.518;2023-03-03T11:12:14;101642.16;;;5.34;72.53
65716;BME280;63484;52.054;8.518;2023-03-03T11:17:42;101629.81;;;5.42;72.31
65716;BME280;63484;52.054;8.518;2023-03-03T11:22:55;101634.66;;;5.57;73.01
65716;BME280;63484;52.054;8.518;2023-03-03T11:28:18;101634.09;;;4.70;75.78
65716;BME280;63484;52.054;8.518;2023-03-03T11:33:30;101633.44;;;5.35;74.20
65716;BME280;63484;52.054;8.518;2023-03-03T11:38:57;101628.22;;;4.98;73.94
65716;BME280;63484;52.054;8.518;2023-03-03T11:44:07;101629.09;;;5.35;73.74
65716;BME280;63484;52.054;8.518;2023-03-03T11:49:14;101619.94;;;5.19;74.10
65716;BME280;63484;52.054;8.518;2023-03-03T11:54:23;101617.19;;;5.24;72.67
65716;BME280;63484;52.054;8.518;2023-03-03T11:59:38;101621.22;;;5.37;72.70
65716;BME280;63484;52.054;8.518;2023-03-03T12:04:46;101612.78;;;5.27;73.09
65716;BME280;63484;52.054;8.518;2023-03-03T12:10:05;101608.06;;;5.43;72.15
65716;BME280;63484;52.054;8.518;2023-03-03T12:15:18;101599.88;;;5.23;72.24
65716;BME280;63484;52.054;8.518;2023-03-03T12:20:25;101597.88;;;5.32;71.72
65716;BME280;63484;52.054;8.518;2023-03-03T12:25:34;101604.44;;;5.48;70.91
65716;BME280;63484;52.054;8.518;2023-03-03T12:30:53;101592.06;;;5.56;71.22
65716;BME280;63484;52.054;8.518;2023-03-03T12:36:10;101582.66;;;5.85;71.43
65716;BME280;63484;52.054;8.518;2023-03-03T12:41:22;101575.81;;;6.13;69.32
65716;BME280;63484;52.054;8.518;2023-03-03T12:46:35;101571.13;;;6.24;69.59
65716;BME280;63484;52.054;8.518;2023-03-03T12:51:59;101565.06;;;5.93;69.91
65716;BME280;63484;52.054;8.518;2023-03-03T12:57:14;101567.56;;;6.26;70.70
65716;BME280;63484;52.054;8.518;2023-03-03T13:02:28;101567.13;;;6.12;69.38
65716;BME280;63484;52.054;8.518;2023-03-03T13:07:39;101560.28;;;5.75;70.77
65716;BME280;63484;52.054;8.518;2023-03-03T13:12:45;101549.72;;;6.13;70.50
65716;BME280;63484;52.054;8.518;2023-03-03T13:18:03;101548.94;;;5.76;70.29
65716;BME280;63484;52.054;8.518;2023-03-03T13:23:09;101548.16;;;5.74;71.27
65716;BME280;63484;52.054;8.518;2023-03-03T13:28:21;101554.16;;;5.76;71.64
65716;BME280;63484;52.054;8.518;2023-03-03T13:33:27;101544.66;;;6.36;70.21
65716;BME280;63484;52.054;8.518;2023-03-03T13:38:29;101545.78;;;5.64;71.21
65716;BME280;63484;52.054;8.518;2023-03-03T13:43:37;101543.81;;;5.40;73.19
65716;BME280;63484;52.054;8.518;2023-03-03T13:49:00;101541.16;;;5.42;73.91
65716;BME280;63484;52.054;8.518;2023-03-03T13:54:10;101540.38;;;5.38;73.99
65716;BME280;63484;52.054;8.518;2023-03-03T13:59:27;101537.34;;;5.21;74.57
65716;BME280;63484;52.054;8.518;2023-03-03T14:04:41;101531.66;;;5.04;75.16
65716;BME280;63484;52.054;8.518;2023-03-03T14:09:58;101527.09;;;5.15;75.71
65716;BME280;63484;52.054;8.518;2023-03-03T14:15:10;101523.31;;;5.25;74.83
65716;BME280;63484;52.054;8.518;2023-03-03T14:20:19;101526.47;;;5.04;75.27
65716;BME280;63484;52.054;8.518;2023-03-03T14:25:24;101521.09;;;4.75;76.79
65716;BME280;63484;52.054;8.518;2023-03-03T14:30:29;101517.16;;;4.58;77.27
65716;BME280;63484;52.054;8.518;2023-03-03T14:35:33;101514.06;;;4.42;77.80
65716;BME280;63484;52.054;8.518;2023-03-03T14:40:37;101508.50;;;4.56;78.28
65716;BME280;63484;52.054;8.518;2023-03-03T14:45:43;101510.22;;;4.58;77.77
65716;BME280;63484;52.054;8.518;2023-03-03T14:50:48;101501.75;;;4.49;78.48
65716;BME280;63484;52.054;8.518;2023-03-03T14:55:51;101496.66;;;4.44;78.23
65716;BME280;63484;52.054;8.518;2023-03-03T15:01:12;101486.97;;;4.49;78.49
65716;BME280;63484;52.054;8.518;2023-03-03T15:06:28;101486.25;;;4.43;78.39
65716;BME280;63484;52.054;8.518;2023-03-03T15:11:32;101481.03;;;4.44;78.84
65716;BME280;63484;52.054;8.518;2023-03-03T15:16:34;101481.13;;;4.40;78.73
65716;BME280;63484;52.054;8.518;2023-03-03T15:21:41;101475.06;;;4.39;79.11
65716;BME280;63484;52.054;8.518;2023-03-03T15:26:53;101466.28;;;4.43;78.66
65716;BME280;63484;52.054;8.518;2023-03-03T15:32:02;101466.13;;;4.49;79.46
65716;BME280;63484;52.054;8.518;2023-03-03T15:37:18;101459.84;;;4.59;79.04
65716;BME280;63484;52.054;8.518;2023-03-03T15:42:26;101458.03;;;4.63;78.87
65716;BME280;63484;52.054;8.518;2023-03-03T15:47:54;101457.78;;;4.73;78.61
65716;BME280;63484;52.054;8.518;2023-03-03T15:53:06;101446.69;;;4.65;78.62
65716;BME280;63484;52.054;8.518;2023-03-03T15:58:46;101439.91;;;4.58;79.59
65716;BME280;63484;52.054;8.518;2023-03-03T16:03:57;101434.72;;;4.58;79.07
65716;BME280;63484;52.054;8.518;2023-03-03T16:09:03;101434.72;;;4.58;80.16
65716;BME280;63484;52.054;8.518;2023-03-03T16:14:18;101438.19;;;4.59;80.22
65716;BME280;63484;52.054;8.518;2023-03-03T16:19:36;101438.19;;;4.57;79.76
65716;BME280;63484;52.054;8.518;2023-03-03T16:24:50;101446.81;;;4.59;80.49
65716;BME280;63484;52.054;8.518;2023-03-03T16:30:13;101442.72;;;4.51;80.24
65716;BME280;63484;52.054;8.518;2023-03-03T16:35:25;101449.69;;;4.49;80.77
65716;BME280;63484;52.054;8.518;2023-03-03T16:40:32;101448.19;;;4.39;81.69
65716;BME280;63484;52.054;8.518;2023-03-03T16:45:37;101444.88;;;4.32;81.26
65716;BME280;63484;52.054;8.518;2023-03-03T16:50:43;101444.38;;;4.16;82.18
65716;BME280;63484;52.054;8.518;2023-03-03T16:55:53;101450.72;;;4.03;82.42
65716;BME280;63484;52.054;8.518;2023-03-03T17:01:04;101449.13;;;3.96;83.19
65716;BME280;63484;52.054;8.518;2023-03-03T17:06:15;101449.53;;;3.77;84.21
65716;BME280;63484;52.054;8.518;2023-03-03T17:11:26;101454.25;;;3.57;84.63
65716;BME280;63484;52.054;8.518;2023-03-03T17:16:35;101451.94;;;3.43;85.57
65716;BME280;63484;52.054;8.518;2023-03-03T17:21:56;101449.47;;;3.36;86.20
65716;BME280;63484;52.054;8.518;2023-03-03T17:27:09;101459.88;;;3.36;86.47
65716;BME280;63484;52.054;8.518;2023-03-03T17:32:26;101452.19;;;3.30;86.78
65716;BME280;63484;52.054;8.518;2023-03-03T17:37:38;101452.03;;;3.39;87.13
65716;BME280;63484;52.054;8.518;2023-03-03T17:42:46;101460.50;;;3.50;86.42
65716;BME280;63484;52.054;8.518;2023-03-03T17:48:15;101454.13;;;3.64;86.15
65716;BME280;63484;52.054;8.518;2023-03-03T17:53:41;101456.53;;;3.73;84.96
65716;BME280;63484;52.054;8.518;2023-03-03T17:59:02;101459.94;;;3.77;85.01
65716;BME280;63484;52.054;8.518;2023-03-03T18:04:25;101463.31;;;3.82;84.72
65716;BME280;63484;52.054;8.518;2023-03-03T18:09:43;101461.53;;;3.84;84.75
65716;BME280;63484;52.054;8.518;2023-03-03T18:20:29;101473.47;;;3.92;84.69
65716;BME280;63484;52.054;8.518;2023-03-03T18:25:53;101469.06;;;3.96;85.02
65716;BME280;63484;52.054;8.518;2023-03-03T18:30:57;101473.38;;;3.98;84.61
65716;BME280;63484;52.054;8.518;2023-03-03T18:36:09;101473.16;;;4.07;84.48
65716;BME280;63484;52.054;8.518;2023-03-03T18:41:21;101483.53;;;4.09;84.00
65716;BME280;63484;52.054;8.518;2023-03-03T18:46:49;101485.97;;;4.18;84.08
65716;BME280;63484;52.054;8.518;2023-03-03T18:52:13;101485.03;;;4.20;83.21
65716;BME280;63484;52.054;8.518;2023-03-03T18:57:18;101486.75;;;4.20;83.79
65716;BME280;63484;52.054;8.518;2023-03-03T19:02:32;101488.25;;;4.32;83.06
65716;BME280;63484;52.054;8.518;2023-03-03T19:07:47;101490.78;;;4.35;82.80
65716;BME280;63484;52.054;8.518;2023-03-03T19:12:51;101486.50;;;4.32;82.68
65716;BME280;63484;52.054;8.518;2023-03-03T19:17:55;101489.09;;;4.32;82.64
65716;BME280;63484;52.054;8.518;2023-03-03T19:23:03;101496.88;;;4.34;82.76
65716;BME280;63484;52.054;8.518;2023-03-03T19:28:24;101490.00;;;4.31;82.69
65716;BME280;63484;52.054;8.518;2023-03-03T19:33:39;101482.19;;;4.31;82.89
65716;BME280;63484;52.054;8.518;2023-03-03T19:38:54;101488.97;;;4.38;81.87
65716;BME280;63484;52.054;8.518;2023-03-03T19:44:08;101493.38;;;4.35;82.52
65716;BME280;63484;52.054;8.518;2023-03-03T19:49:23;101491.47;;;4.43;82.42
65716;BME280;63484;52.054;8.518;2023-03-03T19:54:40;101489.75;;;4.42;81.72
65716;BME280;63484;52.054;8.518;2023-03-03T19:59:53;101486.28;;;4.41;82.07
65716;BME280;63484;52.054;8.518;2023-03-03T20:05:07;101491.47;;;4.43;82.36
65716;BME280;63484;52.054;8.518;2023-03-03T20:10:27;101494.03;;;4.46;81.58
65716;BME280;63484;52.054;8.518;2023-03-03T20:15:40;101487.91;;;4.47;81.36
65716;BME280;63484;52.054;8.518;2023-03-03T20:21:03;101496.47;;;4.52;81.54
65716;BME280;63484;52.054;8.518;2023-03-03T20:26:12;101482.59;;;4.51;81.38
65716;BME280;63484;52.054;8.518;2023-03-03T20:31:20;101479.06;;;4.54;81.16
65716;BME280;63484;52.054;8.518;2023-03-03T20:36:32;101476.56;;;4.51;80.77
65716;BME280;63484;52.054;8.518;2023-03-03T20:41:48;101482.28;;;4.65;80.51
65716;BME280;63484;52.054;8.518;2023-03-03T20:47:01;101481.41;;;4.64;79.81
65716;BME280;63484;52.054;8.518;2023-03-03T20:52:07;101477.22;;;4.59;80.30
65716;BME280;63484;52.054;8.518;2023-03-03T20:57:18;101478.97;;;4.58;80.58
65716;BME280;63484;52.054;8.518;2023-03-03T21:02:29;101473.78;;;4.57;80.31
65716;BME280;63484;52.054;8.518;2023-03-03T21:07:33;101477.16;;;4.62;80.15
65716;BME280;63484;52.054;8.518;2023-03-03T21:12:35;101483.16;;;4.65;79.74
65716;BME280;63484;52.054;8.518;2023-03-03T21:17:38;101488.56;;;4.56;80.11
65716;BME280;63484;52.054;8.518;2023-03-03T21:22:41;101485.84;;;4.61;79.81
65716;BME280;63484;52.054;8.518;2023-03-03T21:27:42;101486.63;;;4.64;79.98
65716;BME280;63484;52.054;8.518;2023-03-03T21:32:47;101479.66;;;4.66;80.07
65716;BME280;63484;52.054;8.518;2023-03-03T21:37:53;101485.63;;;4.70;80.39
65716;BME280;63484;52.054;8.518;2023-03-03T21:42:57;101486.44;;;4.73;80.30
65716;BME280;63484;52.054;8.518;2023-03-03T21:48:02;101483.91;;;4.69;79.81
65716;BME280;63484;52.054;8.518;2023-03-03T21:53:04;101477.53;;;4.82;78.52
65716;BME280;63484;52.054;8.518;2023-03-03T21:58:05;101478.31;;;4.85;78.44
65716;BME280;63484;52.054;8.518;2023-03-03T22:03:08;101483.34;;;4.91;78.25
65716;BME280;63484;52.054;8.518;2023-03-03T22:08:10;101467.00;;;4.86;77.97
65716;BME280;63484;52.054;8.518;2023-03-03T22:13:12;101460.94;;;4.86;78.13
65716;BME280;63484;52.054;8.518;2023-03-03T22:18:17;101466.19;;;4.84;77.78
65716;BME280;63484;52.054;8.518;2023-03-03T22:23:18;101460.19;;;4.81;77.30
65716;BME280;63484;52.054;8.518;2023-03-03T22:28:20;101473.13;;;4.84;77.64
65716;BME280;63484;52.054;8.518;2023-03-03T22:33:22;101468.63;;;4.90;76.92
65716;BME280;63484;52.054;8.518;2023-03-03T22:38:24;101467.00;;;4.86;76.80
65716;BME280;63484;52.054;8.518;2023-03-03T22:43:26;101466.06;;;4.89;77.13
65716;BME280;63484;52.054;8.518;2023-03-03T22:48:30;101452.84;;;4.96;76.24
65716;BME280;63484;52.054;8.518;2023-03-03T22:53:32;101448.53;;;4.95;76.98
65716;BME280;63484;52.054;8.518;2023-03-03T22:58:33;101442.41;;;4.96;76.74
65716;BME280;63484;52.054;8.518;2023-03-03T23:03:36;101443.28;;;4.97;77.22
65716;BME280;63484;52.054;8.518;2023-03-03T23:08:38;101450.06;;;5.04;76.17
65716;BME280;63484;52.054;8.518;2023-03-03T23:13:39;101440.59;;;5.00;75.87
65716;BME280;63484;52.054;8.518;2023-03-03T23:18:42;101432.88;;;4.97;75.84
65716;BME280;63484;52.054;8.518;2023-03-03T23:23:43;101437.13;;;4.99;75.89
65716;BME280;63484;52.054;8.518;2023-03-03T23:28:45;101432.00;;;4.96;76.52
65716;BME280;63484;52.054;8.518;2023-03-03T23:33:47;101430.97;;;5.03;76.19
65716;BME280;63484;52.054;8.518;2023-03-03T23:38:49;101427.56;;;5.00;75.65
65716;BME280;63484;52.054;8.518;2023-03-03T23:43:50;101439.03;;;4.94;76.34
65716;BME280;63484;52.054;8.518;2023-03-03T23:48:53;101435.66;;;4.89;76.07
65716;BME280;63484;52.054;8.518;2023-03-03T23:53:55;101440.03;;;4.89;77.11
65716;BME280;63484;52.054;8.518;2023-03-03T23:58:56;101435.66;;;4.89;77.27
